Skaelskor, Denmark
Current Conditions -  °F | °C
As of 2:20 AM on Thursday 23 Oct 2014 (Local Time) from EKRK Reporting Station
Light Rain Light Rain  
Wind Chill: 52°   Ceiling: 1000
Heat Index: 52°   Visibility: 6mi
Dew Point: 50°   Wind: 8mph
Humidity: 94%   Direction: 90°E
Pressure: 30.03"   Gusts: NA
Location:  55.25°N, 11.29°E
Report Text: EKRK 230020Z AUTO 09007KT 9999NDV -RA FEW007/// BKN010///BKN014/// 11/10 Q1017
Loading
Personal Weather Stations






























Interactive Weather Map New forecast layout! Learn more

10-Day Weather Forecast

Advertisements
Track Severe Weather on mobile